M I D A S
Marine Information and Data Acquisition System
Tripno 488 of the Zeeleeuw from 2003-04-09 06:23:00 to 2003-04-09 13:32:44
Back to CruiseResearch ActivitiesStationsMapUnderway DataData graphs

EquipmentUnitsComment
TimeDGPSUTC
LatitudeDGPSDM.mWGS84
LongitudeDGPSDM.mWGS84
HeadingGyrodeg 
SOGDGPSknotsSpeed over ground
COGDGPSdegCourse over ground
DepthEcho soundermeters200 kHz
Missing or incorrect values are displayed as -999
Navigation data collected by the RV Zeeleeuw from 2003-04-09 06:23:00 to 2003-04-09 13:32:44
Time Latitude Longitude Heading SOG COG Depth
2003-04-09 06:24:07 51°13.623 2°55.988 115.4 5.3 290 -999
2003-04-09 06:25:06 51°13.663 2°55.857 121.7 5.5 298 -999
2003-04-09 06:26:06 51°13.695 2°55.754 109.4 2.3 294 12.4
2003-04-09 06:27:06 51°13.704 2°55.757 53.5 0.4 23 12.4
2003-04-09 06:28:06 51°13.695 2°55.736 32.3 0.4 253 7.3
2003-04-09 06:29:06 51°13.709 2°55.718 341.8 3 334 11.8
2003-04-09 06:30:26 51°13.827 2°55.627 337.6 0.3 331 11.5
2003-04-09 06:31:28 51°13.935 2°55.543 340.9 7.4 335 11.4
2003-04-09 06:32:27 51°14.049 2°55.465 342.7 7.5 337 10.9
2003-04-09 06:33:28 51°14.168 2°55.378 336 7.9 331 11.4
2003-04-09 06:34:28 51°14.277 2°55.231 316.5 9 313 11.6
2003-04-09 06:35:27 51°14.359 2°55.037 310.6 9.2 305 11.8
2003-04-09 06:36:28 51°14.455 2°54.838 314.2 9.2 310 12
2003-04-09 06:37:27 51°14.585 2°54.718 342.5 9 339 11.3
2003-04-09 06:38:27 51°14.734 2°54.672 354.8 9.2 351 10.9
2003-04-09 06:39:27 51°14.875 2°54.638 359 7.3 354 10.9
2003-04-09 06:40:28 51°14.97 2°54.65 15 4.9 9 10.6
2003-04-09 06:41:27 51°15.028 2°54.672 18.1 3.5 13 10.1
2003-04-09 06:42:27 51°15.08 2°54.69 17 3 11 10
2003-04-09 06:43:28 51°15.161 2°54.736 33.1 8.1 27 9.8
2003-04-09 06:44:27 51°15.304 2°54.939 55.2 13.4 49 9.8
2003-04-09 06:45:28 51°15.455 2°55.221 56 13.9 50 9.8
2003-04-09 06:46:28 51°15.608 2°55.508 55.8 14.3 50 9.8
2003-04-09 06:47:28 51°15.757 2°55.8 56.2 14.3 50 10
2003-04-09 06:48:28 51°15.915 2°56.089 56 14.3 50 10
2003-04-09 06:49:28 51°16.066 2°56.389 58.1 14.4 52 10.2
2003-04-09 06:50:28 51°16.215 2°56.689 58.1 14.3 52 10.6
2003-04-09 06:51:28 51°16.359 2°56.986 58.2 14.2 52 10.5
2003-04-09 06:52:28 51°16.504 2°57.279 58.5 14.4 51 10.8
2003-04-09 06:53:26 51°16.64 2°57.56 58.4 14.1 52 10.7
2003-04-09 06:54:28 51°16.787 2°57.869 60.2 14.1 54 10.7
2003-04-09 06:55:28 51°16.926 2°58.174 60.4 14.1 54 10.6
2003-04-09 06:56:28 51°17.062 2°58.482 62.6 14.1 56 10.5
2003-04-09 06:57:28 51°17.191 2°58.794 62.2 14.1 56 10.4
2003-04-09 06:58:28 51°17.322 2°59.106 62.4 14.2 56 10.3
2003-04-09 06:59:27 51°17.451 2°59.414 62.4 14.2 56 10
2003-04-09 07:00:26 51°17.575 2°59.727 64.7 14.1 59 10
2003-04-09 07:01:28 51°17.7 3°0.06 67.2 14.2 61 10
2003-04-09 07:02:28 51°17.795 3°0.404 73.1 14.2 67 9.8
2003-04-09 07:03:27 51°17.893 3°0.743 69.6 14.2 64 9.6
2003-04-09 07:04:28 51°17.999 3°1.088 70.1 14.2 64 9.8
2003-04-09 07:05:28 51°18.106 3°1.425 67.2 14.3 61 9.9
2003-04-09 07:06:28 51°18.22 3°1.755 67.2 14.3 61 9.8
2003-04-09 07:07:28 51°18.334 3°2.084 67.6 14.1 62 9.5
2003-04-09 07:08:28 51°18.447 3°2.414 67.2 14.1 61 9.4
2003-04-09 07:09:28 51°18.558 3°2.745 68.3 14 62 9.2
2003-04-09 07:10:28 51°18.654 3°3.082 71.1 14 66 9.3
2003-04-09 07:11:28 51°18.749 3°3.419 71.5 13.8 66 9.3
2003-04-09 07:12:28 51°18.789 3°3.653 98.8 6.6 91 9.7
2003-04-09 07:13:28 51°18.766 3°3.767 129.4 3.4 122 9.7
2003-04-09 07:14:28 51°18.739 3°3.811 145.8 1.5 139 9.9
2003-04-09 07:15:28 51°18.74 3°3.808 167.7 0.9 324 -999
2003-04-09 07:16:28 51°18.75 3°3.798 188.3 0.5 318 9.8
2003-04-09 07:17:28 51°18.754 3°3.787 199.8 0.4 298 9.8
2003-04-09 07:18:28 51°18.755 3°3.777 206.1 0.4 286 9.7
2003-04-09 07:19:28 51°18.756 3°3.766 203.5 0.5 264 9.7
2003-04-09 07:20:28 51°18.753 3°3.757 194.5 0.4 246 9.7
2003-04-09 07:21:28 51°18.752 3°3.749 186.5 0.3 247 9.6
2003-04-09 07:22:28 51°18.749 3°3.741 180.3 0.4 223 9.6
2003-04-09 07:23:28 51°18.744 3°3.732 180.4 0.3 229 9.7
2003-04-09 07:24:28 51°18.744 3°3.725 179.9 0.4 225 9.7
2003-04-09 07:25:28 51°18.714 3°3.714 192.2 3 192 9.6
2003-04-09 07:26:28 51°18.694 3°3.604 295.8 5.7 290 9.6
2003-04-09 07:27:28 51°18.789 3°3.578 27.3 8.1 19 9.5
2003-04-09 07:28:28 51°18.938 3°3.749 46.4 11.9 40 9.2
2003-04-09 07:29:28 51°19.085 3°3.97 57.3 12.1 51 8.8
2003-04-09 07:30:28 51°19.21 3°4.195 37.1 9.3 33 8.9
2003-04-09 07:31:28 51°19.299 3°4.164 315.1 4.8 314 9.2
2003-04-09 07:32:27 51°19.295 3°4.051 242.4 4 243 9.3
2003-04-09 07:33:28 51°19.263 3°3.981 222.8 2.8 226 9.3
2003-04-09 07:34:28 51°19.233 3°3.946 206.8 2 212 8.9
2003-04-09 07:35:28 51°19.206 3°3.921 201.7 2.1 209 9
2003-04-09 07:36:27 51°19.165 3°3.879 220.6 3.5 220 9
2003-04-09 07:37:28 51°19.131 3°3.788 244.1 4.1 243 8.9
2003-04-09 07:38:28 51°19.089 3°3.699 231.5 3.9 231 8.9
2003-04-09 07:39:28 51°19.046 3°3.629 224.5 3.1 226 8.9
2003-04-09 07:40:28 51°19.023 3°3.576 240.3 2.6 241 9
2003-04-09 07:41:28 51°19.005 3°3.519 238 2.4 241 8.9
2003-04-09 07:42:28 51°18.984 3°3.468 234.2 2.2 239 8.9
2003-04-09 07:43:28 51°18.967 3°3.417 238 2.2 243 8.8
2003-04-09 07:44:28 51°18.95 3°3.365 241.6 2.2 244 8.8
2003-04-09 07:45:28 51°18.94 3°3.315 252.7 2 255 8.8
2003-04-09 07:46:28 51°18.936 3°3.27 259.2 1.7 262 8.7
2003-04-09 07:47:28 51°18.932 3°3.228 258.4 1.6 260 8.7
2003-04-09 07:48:28 51°18.928 3°3.189 257.1 1.4 261 8.7
2003-04-09 07:49:28 51°18.924 3°3.154 254.5 1.3 262 8.6
2003-04-09 07:50:28 51°18.922 3°3.124 250 1.2 266 8.6
2003-04-09 07:51:28 51°18.92 3°3.097 254.8 1 266 8.5
2003-04-09 07:52:28 51°18.92 3°3.072 265 0.9 275 8.7
2003-04-09 07:53:28 51°18.92 3°3.051 287.5 0.8 277 8.6
2003-04-09 07:54:28 51°18.922 3°3.026 304.2 1.1 279 8.6
2003-04-09 07:55:28 51°18.929 3°2.993 311.5 1.8 292 8.7
2003-04-09 07:56:28 51°18.952 3°2.935 318.4 3.1 306 8.7
2003-04-09 07:57:28 51°18.992 3°2.85 313.5 4.5 304 8.6
2003-04-09 07:58:28 51°19.028 3°2.742 304.5 4.2 296 8.7
2003-04-09 07:59:28 51°19.059 3°2.664 323.1 2.9 306 8.5
2003-04-09 08:00:28 51°19.084 3°2.618 342.4 2 317 8.7
2003-04-09 08:01:28 51°19.106 3°2.588 357 1.5 320 8.2
2003-04-09 08:02:28 51°19.125 3°2.566 13.1 1.7 337 8.6
2003-04-09 08:03:28 51°19.155 3°2.573 53.2 2 29 8.6
2003-04-09 08:04:28 51°19.168 3°2.617 94.9 1.7 89 8.5
2003-04-09 08:05:28 51°19.164 3°2.656 95.8 1.4 97 8.6
2003-04-09 08:06:28 51°19.164 3°2.69 85.8 1.1 84 8.5
2003-04-09 08:07:28 51°19.17 3°2.713 70.5 1 52 8.6
2003-04-09 08:08:28 51°19.184 3°2.731 56.3 1.1 27 8.4
2003-04-09 08:09:28 51°19.202 3°2.74 55.8 1.2 13 8.1
2003-04-09 08:10:28 51°19.219 3°2.747 56.3 1.1 16 8.5
2003-04-09 08:11:28 51°19.238 3°2.751 42.9 1.2 358 8.4
2003-04-09 08:12:28 51°19.254 3°2.741 30.6 1 330 8.4
2003-04-09 08:13:28 51°19.266 3°2.723 26.4 0.9 311 8.2
2003-04-09 08:14:28 51°19.292 3°2.699 350.4 3 330 8.4
2003-04-09 08:15:28 51°19.311 3°2.584 256.9 5.6 256 8.2
2003-04-09 08:16:28 51°19.26 3°2.493 215.2 3.9 221 8.4
2003-04-09 08:17:28 51°19.218 3°2.442 197.8 2.8 214 8.3
2003-04-09 08:18:28 51°19.185 3°2.41 185.1 2.2 207 8.4
2003-04-09 08:19:28 51°19.155 3°2.384 178.4 1.9 207 8.3
2003-04-09 08:20:28 51°19.129 3°2.357 173.4 1.7 212 8.3
2003-04-09 08:21:28 51°19.106 3°2.333 169.8 1.6 213 8.3
2003-04-09 08:22:28 51°19.082 3°2.312 165.3 1.6 211 8.3
2003-04-09 08:23:28 51°19.062 3°2.292 162.7 1.5 213 8.4
2003-04-09 08:24:28 51°19.045 3°2.269 162.1 1.4 221 8.4
2003-04-09 08:25:28 51°19.03 3°2.247 161.3 1.3 224 8.4
2003-04-09 08:26:28 51°18.991 3°2.259 130 3.6 142 8.2
2003-04-09 08:27:28 51°19.004 3°2.388 51.2 6.4 46 8.2
2003-04-09 08:28:28 51°19.129 3°2.487 37.7 9.3 29 8
2003-04-09 08:29:28 51°19.269 3°2.61 37.3 9.7 28 7.9
2003-04-09 08:30:28 51°19.412 3°2.735 37.5 9.8 28 7.8
2003-04-09 08:31:28 51°19.556 3°2.859 37.2 9.8 29 7.9
2003-04-09 08:32:28 51°19.7 3°2.982 37.4 9.9 28 7.6
2003-04-09 08:33:28 51°19.844 3°3.108 37.8 9.8 29 11.2
2003-04-09 08:34:27 51°19.985 3°3.231 37.5 9.8 29 10.9
2003-04-09 08:35:28 51°20.131 3°3.358 37.3 9.8 28 7.5
2003-04-09 08:36:28 51°20.275 3°3.484 37.1 9.8 28 7.6
2003-04-09 08:37:28 51°20.412 3°3.6 43.1 8 32 8.3
2003-04-09 08:38:28 51°20.466 3°3.683 62.5 3.2 49 8.7
2003-04-09 08:39:28 51°20.491 3°3.723 64.3 1.6 38 8.6
2003-04-09 08:40:28 51°20.509 3°3.733 59.9 1 4 8.5
2003-04-09 08:41:28 51°20.521 3°3.731 55.7 0.9 324 7.8
2003-04-09 08:42:28 51°20.53 3°3.713 47.7 1 307 13.5
2003-04-09 08:43:28 51°20.544 3°3.722 79.1 1.1 59 13.9
2003-04-09 08:44:28 51°20.535 3°3.746 123.2 1.2 157 13.3
2003-04-09 08:45:28 51°20.515 3°3.739 145.1 1.4 204 13.2
2003-04-09 08:46:28 51°20.496 3°3.717 156 1.5 221 13.2
2003-04-09 08:47:28 51°20.479 3°3.686 165.3 1.6 234 13.1
2003-04-09 08:48:28 51°20.467 3°3.653 172.7 1.6 237 12.8
2003-04-09 08:49:28 51°20.454 3°3.617 178.1 1.5 240 13
2003-04-09 08:50:28 51°20.44 3°3.582 182.2 1.6 242 13
2003-04-09 08:51:28 51°20.429 3°3.549 186.5 1.6 242 12.8
2003-04-09 08:52:28 51°20.416 3°3.508 190 1.6 236 13.4
2003-04-09 08:53:28 51°20.402 3°3.468 192.7 1.6 241 12.6
2003-04-09 08:54:28 51°20.39 3°3.426 193.8 1.7 241 12.5
2003-04-09 08:55:28 51°20.378 3°3.387 194.5 1.7 240 12.6
2003-04-09 08:56:28 51°20.365 3°3.349 194.5 1.7 243 12.5
2003-04-09 08:57:28 51°20.352 3°3.31 193.8 1.7 243 12.6
2003-04-09 08:58:28 51°20.339 3°3.271 193 1.6 239 12.5
2003-04-09 08:59:28 51°20.325 3°3.232 194.5 1.7 241 12.2
2003-04-09 09:00:28 51°20.315 3°3.192 196.4 1.7 242 12.3
2003-04-09 09:01:28 51°20.301 3°3.15 198.8 1.7 241 12
2003-04-09 09:02:28 51°20.287 3°3.109 202.6 1.8 242 12.1
2003-04-09 09:03:28 51°20.27 3°3.059 215.8 2.5 238 11.7
2003-04-09 09:04:28 51°20.246 3°2.989 245.3 3.6 246 11.7
2003-04-09 09:05:28 51°20.241 3°2.884 296.1 4.1 280 11.7
2003-04-09 09:06:28 51°20.276 3°2.802 349.4 3.4 321 12.4
2003-04-09 09:07:28 51°20.328 3°2.791 40.8 3.8 18 13.2
2003-04-09 09:08:28 51°20.391 3°2.873 55.2 5.7 43 12.8
2003-04-09 09:09:28 51°20.466 3°2.985 52.3 6.3 43 13
2003-04-09 09:10:28 51°20.551 3°3.095 49.5 6.6 38 13.4
2003-04-09 09:11:28 51°20.639 3°3.232 58 8.4 49 8.7
2003-04-09 09:12:28 51°20.735 3°3.415 54.4 9.1 47 8.7
2003-04-09 09:13:28 51°20.823 3°3.615 61.1 9.3 54 8.9
2003-04-09 09:14:28 51°20.911 3°3.816 58.7 9 50 9
2003-04-09 09:15:28 51°20.976 3°3.93 63.4 4 50 9.2
2003-04-09 09:16:28 51°20.996 3°3.988 75.9 1.9 67 9.1
2003-04-09 09:17:28 51°21.008 3°4.016 66.1 1 40 9.5
2003-04-09 09:18:28 51°21.024 3°4.023 52 1 2 9.5
2003-04-09 09:19:28 51°21.055 3°4.035 44.6 2.7 21 9.5
2003-04-09 09:20:28 51°21.089 3°4.09 73 3.1 64 9.6
2003-04-09 09:21:28 51°21.11 3°4.175 72.4 3.6 66 9.7
2003-04-09 09:22:28 51°21.138 3°4.251 65.3 3 55 9.7
2003-04-09 09:23:28 51°21.169 3°4.3 66.4 2.2 49 9.8
2003-04-09 09:24:28 51°21.181 3°4.342 78.7 1.6 68 9.9
2003-04-09 09:25:28 51°21.193 3°4.383 80 1.8 74 10.1
2003-04-09 09:26:28 51°21.2 3°4.438 85.6 2.2 82 10
2003-04-09 09:27:28 51°21.205 3°4.502 84.8 2.4 83 10
2003-04-09 09:28:28 51°21.209 3°4.567 84.9 2.4 83 10
2003-04-09 09:29:28 51°21.212 3°4.634 86.6 2.5 84 9.9
2003-04-09 09:30:28 51°21.215 3°4.704 87.1 2.5 87 9.9
2003-04-09 09:31:28 51°21.227 3°4.762 76.1 2.5 71 9.8
2003-04-09 09:32:28 51°21.238 3°4.825 81.4 2.4 78 9.8
2003-04-09 09:33:28 51°21.246 3°4.886 80.7 2.4 80 9.8
2003-04-09 09:34:28 51°21.258 3°4.948 77 2.5 73 9.9
2003-04-09 09:35:28 51°21.269 3°5.011 77.9 2.5 74 9.8
2003-04-09 09:36:28 51°21.285 3°5.073 70.4 2.5 63 9.7
2003-04-09 09:37:28 51°21.306 3°5.137 74.2 2.6 68 9.8
2003-04-09 09:38:28 51°21.321 3°5.199 70.1 2.6 66 9.7
2003-04-09 09:39:28 51°21.342 3°5.255 73.4 2.4 65 9.8
2003-04-09 09:40:28 51°21.358 3°5.316 74.7 2.5 68 9.8
2003-04-09 09:41:28 51°21.371 3°5.378 74.7 2.4 70 9.9
2003-04-09 09:42:28 51°21.393 3°5.435 65.8 2.5 54 9.9
2003-04-09 09:43:28 51°21.416 3°5.491 73.9 2.4 64 9.9
2003-04-09 09:44:28 51°21.429 3°5.553 81.2 2.5 75 9.9
2003-04-09 09:45:28 51°21.44 3°5.618 75 2.7 68 10
2003-04-09 09:46:28 51°21.457 3°5.68 74.7 2.5 68 10
2003-04-09 09:47:28 51°21.474 3°5.747 75.3 2.5 69 10
2003-04-09 09:48:28 51°21.488 3°5.806 71.3 2.5 66 10
2003-04-09 09:49:28 51°21.51 3°5.866 70.4 2.5 61 10.1
2003-04-09 09:50:28 51°21.53 3°5.926 75.3 2.6 67 10.2
2003-04-09 09:51:28 51°21.539 3°5.989 79.7 2.6 75 10.2
2003-04-09 09:52:28 51°21.553 3°6.055 70.2 2.5 64 10.2
2003-04-09 09:53:28 51°21.577 3°6.111 69.1 2.5 59 10.3
2003-04-09 09:54:28 51°21.591 3°6.161 84.3 1.6 81 10.4
2003-04-09 09:56:48 51°21.557 3°6.221 118.1 0.8 154 10.3
2003-04-09 09:57:48 51°21.539 3°6.237 121.9 2.4 149 10.1
2003-04-09 09:58:48 51°21.489 3°6.297 124.8 3.9 138 9.8
2003-04-09 09:59:48 51°21.446 3°6.343 124.3 2.4 148 9.8
2003-04-09 10:00:48 51°21.41 3°6.36 130 1.9 167 9.7
2003-04-09 10:01:48 51°21.4 3°6.371 133 1.5 187 9.6
2003-04-09 10:02:56 51°21.357 3°6.351 139.3 1.7 205 9.5
2003-04-09 10:03:56 51°21.335 3°6.326 148 1.8 217 9.4
2003-04-09 10:04:56 51°21.312 3°6.297 151.1 1.7 220 9.4
2003-04-09 10:05:56 51°21.289 3°6.267 153 1.7 224 9.3
2003-04-09 10:06:56 51°21.27 3°6.234 156.9 1.7 226 9.2
2003-04-09 10:07:56 51°21.252 3°6.199 158.9 1.7 226 9.2
2003-04-09 10:08:56 51°21.233 3°6.162 162.5 1.7 229 9.1
2003-04-09 10:09:56 51°21.215 3°6.125 167.6 1.7 232 9.1
2003-04-09 10:10:56 51°21.199 3°6.086 174.9 1.8 235 9
2003-04-09 10:11:56 51°21.181 3°6.047 177.8 1.8 233 9
2003-04-09 10:12:56 51°21.163 3°6.01 180.2 1.8 235 8.9
2003-04-09 10:13:56 51°21.145 3°5.978 181.5 1.8 233 8.9
2003-04-09 10:14:56 51°21.126 3°5.936 184.4 1.7 237 8.8
2003-04-09 10:15:56 51°21.105 3°5.892 189 2 231 8.8
2003-04-09 10:16:56 51°21.086 3°5.851 193 2.1 235 8.7
2003-04-09 10:17:56 51°21.07 3°5.809 195.7 2 235 8.6
2003-04-09 10:18:56 51°21.049 3°5.767 194.5 2 232 8.6
2003-04-09 10:19:56 51°21.028 3°5.724 193 2 232 8.4
2003-04-09 10:20:56 51°21.007 3°5.682 192.1 2 231 8.4
2003-04-09 10:21:56 51°20.986 3°5.64 190.6 1.9 231 8.5
2003-04-09 10:22:56 51°20.964 3°5.601 189.7 1.9 229 8.2
2003-04-09 10:23:56 51°20.942 3°5.56 189.3 1.9 227 8.2
2003-04-09 10:24:56 51°20.921 3°5.522 192.5 2 229 8.1
2003-04-09 10:25:56 51°20.895 3°5.477 203.4 2.8 223 8
2003-04-09 10:26:56 51°20.856 3°5.378 259.8 6.1 251 7.8
2003-04-09 10:27:56 51°20.83 3°5.149 267 10.6 261 7.9
2003-04-09 10:28:56 51°20.8 3°4.848 264.9 11.8 260 7.8
2003-04-09 10:29:56 51°20.742 3°4.546 255.9 12.1 251 7.9
2003-04-09 10:30:56 51°20.682 3°4.241 258.7 12 254 7.8
2003-04-09 10:31:56 51°20.623 3°3.932 259.1 12.2 253 7.8
2003-04-09 10:32:56 51°20.566 3°3.626 258.8 12.1 253 7.7
2003-04-09 10:33:56 51°20.51 3°3.321 258.9 11.9 254 7.9
2003-04-09 10:34:56 51°20.455 3°3.018 259.1 11.8 253 5.6
2003-04-09 10:35:56 51°20.399 3°2.714 258.9 12 253 8
2003-04-09 10:36:56 51°20.342 3°2.412 259.7 11.8 254 7.9
2003-04-09 10:37:56 51°20.286 3°2.112 259.3 11.8 254 7.9
2003-04-09 10:38:56 51°20.23 3°1.809 259.7 11.9 253 7.8
2003-04-09 10:39:56 51°20.173 3°1.508 258.9 11.8 253 7.7
2003-04-09 10:40:56 51°20.116 3°1.206 259.1 12 253 7.7
2003-04-09 10:41:56 51°20.06 3°0.9 258.8 11.9 253 7.9
2003-04-09 10:42:56 51°20.003 3°0.596 259.2 12 254 8
2003-04-09 10:43:56 51°19.944 3°0.287 259.2 12.1 253 8.2
2003-04-09 10:44:56 51°19.886 2°59.979 259.3 12.1 253 8.2
2003-04-09 10:45:56 51°19.829 2°59.67 259.1 12.2 253 8.4
2003-04-09 10:46:56 51°19.77 2°59.359 258.3 12.1 253 8.6
2003-04-09 10:47:56 51°19.712 2°59.05 258.7 12.2 253 8.7
2003-04-09 10:48:56 51°19.652 2°58.738 258.9 12.2 253 8.9
2003-04-09 10:49:56 51°19.594 2°58.432 259.2 12.1 253 9
2003-04-09 10:50:56 51°19.535 2°58.125 259.6 12.2 253 9
2003-04-09 10:51:56 51°19.475 2°57.816 259.1 12.1 253 9.2
2003-04-09 10:52:56 51°19.415 2°57.507 259.2 12.2 253 9.4
2003-04-09 10:53:56 51°19.355 2°57.199 258.7 12.1 253 9.5
2003-04-09 10:54:56 51°19.293 2°56.891 259.3 12.2 252 9.8
2003-04-09 10:55:56 51°19.233 2°56.582 259.2 12.1 253 10
2003-04-09 10:56:56 51°19.173 2°56.276 259.4 12 253 10.1
2003-04-09 10:57:56 51°19.114 2°55.973 258.9 12.1 252 10.2
2003-04-09 10:58:56 51°19.054 2°55.67 259.1 12 252 10.4
2003-04-09 10:59:56 51°18.992 2°55.366 256.7 12 250 10.4
2003-04-09 11:00:56 51°18.925 2°55.063 256.8 12.1 251 10.5
2003-04-09 11:01:56 51°18.858 2°54.76 257.3 12.1 251 10.4
2003-04-09 11:02:56 51°18.792 2°54.456 257.2 12.1 251 10.5
2003-04-09 11:03:56 51°18.725 2°54.152 257.3 12.2 251 10.5
2003-04-09 11:04:56 51°18.651 2°53.852 253.5 12.2 248 10.6
2003-04-09 11:05:56 51°18.573 2°53.553 253.9 12.1 247 10.7
2003-04-09 11:06:56 51°18.483 2°53.263 249.4 12.3 244 10.6
2003-04-09 11:07:56 51°18.393 2°52.971 249.1 12.2 244 10.6
2003-04-09 11:08:56 51°18.287 2°52.694 236 12.2 233 10.5
2003-04-09 11:09:56 51°18.133 2°52.492 208.5 11.9 208 10.2
2003-04-09 11:10:56 51°17.944 2°52.407 187.7 11.7 190 10.1
2003-04-09 11:11:56 51°17.75 2°52.372 183.9 11.9 185 9.8
2003-04-09 11:12:56 51°17.55 2°52.342 184.6 11.9 185 9.9
2003-04-09 11:13:56 51°17.361 2°52.308 189.4 11.8 189 9.9
2003-04-09 11:14:56 51°17.169 2°52.238 196.2 11.9 194 9.8
2003-04-09 11:15:56 51°16.978 2°52.156 195 12 194 9.5
2003-04-09 11:16:56 51°16.787 2°52.078 195.6 11.8 194 9.7
2003-04-09 11:17:56 51°16.598 2°52.001 194.9 11.7 194 10.9
2003-04-09 11:18:56 51°16.411 2°51.923 195.2 11.7 194 10.8
2003-04-09 11:19:56 51°16.223 2°51.842 195.6 11.7 196 11.8
2003-04-09 11:20:56 51°16.038 2°51.759 195.8 11.6 197 11.9
2003-04-09 11:21:56 51°15.849 2°51.672 193.8 11.7 195 12.1
2003-04-09 11:22:56 51°15.66 2°51.594 192 11.8 194 12.1
2003-04-09 11:23:56 51°15.469 2°51.522 189.1 11.7 191 12.2
2003-04-09 11:24:56 51°15.278 2°51.466 188.7 11.7 190 11.9
2003-04-09 11:25:56 51°15.085 2°51.408 188.7 11.7 191 11.5
2003-04-09 11:26:56 51°14.946 2°51.323 219.1 7.3 216 11.3
2003-04-09 11:27:56 51°14.881 2°51.207 239.1 5.1 234 11.2
2003-04-09 11:28:56 51°14.834 2°51.113 223.7 4.2 226 11.1
2003-04-09 11:29:56 51°14.782 2°51.044 206.5 3.9 214 11
2003-04-09 11:30:56 51°14.73 2°50.986 206.1 4 213 10.9
2003-04-09 11:31:56 51°14.663 2°50.903 235.1 5.6 231 10.6
2003-04-09 11:32:56 51°14.616 2°50.769 252.6 5.9 245 10.7
2003-04-09 11:33:56 51°14.575 2°50.626 250.3 5.5 244 10.7
2003-04-09 11:34:56 51°14.541 2°50.515 255.1 4.4 243 10.6
2003-04-09 11:35:59 51°14.513 2°50.413 263.3 1.9 247 10.7
2003-04-09 11:36:58 51°14.491 2°50.329 262.3 3.4 249 10.6
2003-04-09 11:37:58 51°14.468 2°50.251 254.8 3.3 244 10.7
2003-04-09 11:38:58 51°14.443 2°50.173 256.7 3.2 243 10.7
2003-04-09 11:39:58 51°14.418 2°50.098 249.8 3.2 240 10.7
2003-04-09 11:40:58 51°14.39 2°50.028 242.9 3.2 237 10.6
2003-04-09 11:41:58 51°14.359 2°49.956 239.1 3.3 235 10.6
2003-04-09 11:42:58 51°14.327 2°49.885 240.6 3.3 235 10.6
2003-04-09 11:43:58 51°14.296 2°49.812 245.4 3.4 237 10.7
2003-04-09 11:44:58 51°14.266 2°49.74 243.4 3.2 237 10.6
2003-04-09 11:45:58 51°14.235 2°49.67 238.7 3.2 235 10.6
2003-04-09 11:46:58 51°14.202 2°49.597 237.7 3.3 234 10.6
2003-04-09 11:47:58 51°14.17 2°49.528 232.6 3.3 231 10.4
2003-04-09 11:48:58 51°14.136 2°49.46 232.1 3.3 232 10.2
2003-04-09 11:49:58 51°14.1 2°49.395 232.6 3.3 231 10.2
2003-04-09 11:50:58 51°14.064 2°49.326 237 3.3 231 10.2
2003-04-09 11:51:58 51°14.031 2°49.257 237.6 3.3 232 10
2003-04-09 11:52:58 51°13.997 2°49.189 236.6 3.3 232 10.1
2003-04-09 11:53:58 51°13.965 2°49.12 241.6 3.2 234 10.1
2003-04-09 11:54:58 51°13.934 2°49.05 243.6 3.2 235 10
2003-04-09 11:55:58 51°13.904 2°48.981 245.9 3.2 236 10.1
2003-04-09 11:56:58 51°13.875 2°48.908 248.9 3.2 238 10.1
2003-04-09 11:57:58 51°13.844 2°48.837 242.4 3.3 234 10
2003-04-09 11:58:58 51°13.809 2°48.772 231.9 3.3 229 10.1
2003-04-09 11:59:58 51°13.773 2°48.714 225.2 3.2 225 10
2003-04-09 12:00:58 51°13.735 2°48.655 224.8 3.2 225 9.9
2003-04-09 12:01:58 51°13.696 2°48.593 226.4 3.3 224 9.8
2003-04-09 12:02:58 51°13.657 2°48.534 224.9 3.3 223 9.8
2003-04-09 12:03:58 51°13.616 2°48.473 220.5 3.6 221 9.3
2003-04-09 12:04:58 51°13.575 2°48.415 224.4 3.3 223 8.9
2003-04-09 12:05:58 51°13.538 2°48.354 232.9 3.3 227 9.2
2003-04-09 12:06:58 51°13.503 2°48.29 239.5 3.2 230 9.1
2003-04-09 12:07:58 51°13.473 2°48.226 251.8 2.9 236 8.6
2003-04-09 12:08:58 51°13.45 2°48.158 266.7 2.7 241 8.6
2003-04-09 12:09:58 51°13.428 2°48.1 279.4 2.6 245 9
2003-04-09 12:10:58 51°13.416 2°48.021 290.8 3.8 265 9.4
2003-04-09 12:11:58 51°13.42 2°47.907 300.7 3.9 275 9.7
2003-04-09 12:12:58 51°13.422 2°47.819 307.3 3 270 9.8
2003-04-09 12:13:58 51°13.419 2°47.752 312 2.4 263 10.1
2003-04-09 12:14:58 51°13.416 2°47.69 322.9 2.4 273 10
2003-04-09 12:15:58 51°13.422 2°47.632 345.2 2.2 287 10.2
2003-04-09 12:16:58 51°13.436 2°47.585 3.6 1.8 304 10.7
2003-04-09 12:17:58 51°13.451 2°47.562 28.3 1 330 10.9
2003-04-09 12:18:58 51°13.456 2°47.555 51.6 0.3 257 11
2003-04-09 12:19:58 51°13.447 2°47.539 63.1 1.1 221 10.7
2003-04-09 12:20:58 51°13.426 2°47.51 87.6 1.9 222 10.8
2003-04-09 12:21:58 51°13.402 2°47.471 116.9 2.2 232 10.8
2003-04-09 12:22:58 51°13.379 2°47.428 146.4 2 227 10.7
2003-04-09 12:23:58 51°13.357 2°47.388 164.6 1.9 225 10.6
2003-04-09 12:24:58 51°13.331 2°47.352 166.1 2.1 214 10.5
2003-04-09 12:25:58 51°13.305 2°47.322 159 2 210 10.2
2003-04-09 12:26:58 51°13.278 2°47.295 152.9 1.9 210 10
2003-04-09 12:27:58 51°13.251 2°47.268 149.5 1.9 211 9.9
2003-04-09 12:28:58 51°13.225 2°47.243 146.4 1.9 208 10
2003-04-09 12:29:58 51°13.198 2°47.219 143.7 1.9 207 9.8
2003-04-09 12:30:58 51°13.17 2°47.193 143.4 1.8 206 9
2003-04-09 12:31:58 51°13.144 2°47.17 139.7 1.9 207 9
2003-04-09 12:32:58 51°13.117 2°47.148 132.8 1.7 207 9.2
2003-04-09 12:33:58 51°13.092 2°47.126 126.3 1.6 207 9
2003-04-09 12:34:58 51°13.066 2°47.105 122.8 1.7 209 9
2003-04-09 12:35:58 51°13.041 2°47.08 123.4 1.7 213 8.9
2003-04-09 12:36:58 51°13.02 2°47.058 129.3 1.4 214 9
2003-04-09 12:37:58 51°12.994 2°47.033 133.5 1.7 211 8.7
2003-04-09 12:38:58 51°12.971 2°47.011 134.6 1.6 208 8.6
2003-04-09 12:39:58 51°12.943 2°46.989 132.2 1.7 208 8
2003-04-09 12:40:58 51°12.922 2°46.968 130.8 1.7 209 8.2
2003-04-09 12:41:58 51°12.897 2°46.945 129.4 1.7 212 8.2
2003-04-09 12:42:58 51°12.87 2°46.922 130 1.6 206 8.5
2003-04-09 12:43:58 51°12.845 2°46.904 138.7 1.7 192 9
2003-04-09 12:44:58 51°12.803 2°46.902 167.3 3.1 182 7.9
2003-04-09 12:45:58 51°12.743 2°46.871 213.8 4.2 211 7.9
2003-04-09 12:46:58 51°12.705 2°46.779 273.9 4.3 256 7.8
2003-04-09 12:47:58 51°12.726 2°46.673 330.6 4.8 307 8.1
2003-04-09 12:48:58 51°12.805 2°46.638 23.2 5.5 10 8.8
2003-04-09 12:49:58 51°12.9 2°46.751 45 8.7 39 8.8
2003-04-09 12:50:58 51°13.039 2°46.932 46.4 11.7 41 8.7
2003-04-09 12:51:58 51°13.182 2°47.151 49 12.1 44 9.4
2003-04-09 12:52:58 51°13.328 2°47.376 49.3 12.2 44 10.3
2003-04-09 12:53:58 51°13.46 2°47.617 59.9 12.1 56 10.6
2003-04-09 12:54:58 51°13.567 2°47.892 62.4 12.2 59 10.9
2003-04-09 12:55:58 51°13.665 2°48.172 64.1 12.2 61 10.8
2003-04-09 12:56:58 51°13.771 2°48.444 60.6 12.1 57 11
2003-04-09 12:57:58 51°13.879 2°48.715 63.6 12.2 60 10.8
2003-04-09 12:58:58 51°13.973 2°49.001 66.9 12.2 63 10.6
2003-04-09 12:59:58 51°14.058 2°49.294 69.7 12.4 66 10.5
2003-04-09 13:00:58 51°14.139 2°49.59 69.7 12.1 66 10.3
2003-04-09 13:01:58 51°14.214 2°49.889 72.8 12.1 71 10
2003-04-09 13:02:58 51°14.285 2°50.193 72.5 12.2 70 9.9
2003-04-09 13:03:58 51°14.355 2°50.491 72.5 12.2 70 10
2003-04-09 13:04:58 51°14.425 2°50.795 72.7 12.2 70 10
2003-04-09 13:05:58 51°14.496 2°51.098 72.2 12.2 70 9.9
2003-04-09 13:06:58 51°14.567 2°51.401 72.1 12.2 70 10
2003-04-09 13:07:58 51°14.636 2°51.702 72.5 12.1 70 10.1
2003-04-09 13:08:58 51°14.706 2°52.006 72.3 12.3 70 10.1
2003-04-09 13:09:58 51°14.771 2°52.314 77.7 12.2 76 9.9
2003-04-09 13:10:58 51°14.812 2°52.634 79.8 12.4 79 9.8
2003-04-09 13:11:58 51°14.843 2°52.958 87 12.4 86 9.9
2003-04-09 13:12:58 51°14.829 2°53.286 98.7 12.6 99 10.1
2003-04-09 13:13:58 51°14.79 2°53.617 100.3 12.7 100 10
2003-04-09 13:14:58 51°14.748 2°53.951 105.2 12.9 105 10.1
2003-04-09 13:15:58 51°14.678 2°54.274 113.3 12.9 113 10.1
2003-04-09 13:16:58 51°14.587 2°54.565 121.6 11.9 123 10.1
2003-04-09 13:17:58 51°14.476 2°54.832 123.3 12.1 123 10.4
2003-04-09 13:18:58 51°14.356 2°55.088 130 12.1 129 10.1
2003-04-09 13:19:58 51°14.25 2°55.287 138.3 7.8 134 10.2
2003-04-09 13:20:59 51°14.162 2°55.381 156 5.6 153 -999
2003-04-09 13:21:59 51°14.083 2°55.439 156.6 4.9 155 -999
2003-04-09 13:22:58 51°14.007 2°55.496 157.3 5.2 154 10.1
2003-04-09 13:23:58 51°13.927 2°55.553 158.8 5.3 156 -999
2003-04-09 13:24:58 51°13.847 2°55.613 155.3 5.3 154 10.1
2003-04-09 13:25:58 51°13.771 2°55.686 144.9 5.3 143 9.9
2003-04-09 13:26:58 51°13.713 2°55.777 132.9 4.6 131 11
2003-04-09 13:27:58 51°13.673 2°55.87 126.8 4 124 9.4
2003-04-09 13:28:58 51°13.639 2°55.955 124.5 3.7 122 9.2
2003-04-09 13:29:58 51°13.613 2°56.032 118.5 3.1 117 9.4
2003-04-09 13:30:58 51°13.601 2°56.092 104.5 1.5 104 8.1
2003-04-09 13:32:04 51°13.6 2°56.102 116.2   355 -999